Time;durP1;ratioP1;P1;durP2;ratioP2;P2;SDS_P1;SDS_P2;PMS_P1;PMS_P2;Temp;Humidity;BMP_temperature;BMP_pressure;BME280_temperature;BME280_humidity;BME280_pressure;Samples;Min_cycle;Max_cycle;Signal;HPM_P1;HPM_P2
2022/03/11 00:01:42;;;;;;;;;3.00;1.50;;;;;;;;5095858;27;45410;-78
2022/03/11 00:04:07;;;;;;;;;5.25;4.75;;;;;;;;5096281;27;45453;-78
2022/03/11 00:06:32;;;;;;;;;5.00;4.00;;;;;;;;5095288;27;46565;-78
2022/03/11 00:08:58;;;;;;;;;4.00;4.00;;;;;;;;5069786;27;45792;-78
2022/03/11 00:11:23;;;;;;;;;4.75;4.75;;;;;;;;5094201;27;45249;-78
2022/03/11 00:13:48;;;;;;;;;3.25;3.25;;;;;;;;5094539;27;45881;-78
2022/03/11 00:16:13;;;;;;;;;2.75;2.75;;;;;;;;5095164;27;47055;-78
2022/03/11 00:18:38;;;;;;;;;4.00;3.50;;;;;;;;5095007;27;45470;-78
2022/03/11 00:21:04;;;;;;;;;4.00;4.00;;;;;;;;5096073;27;45430;-78
2022/03/11 00:23:29;;;;;;;;;4.00;4.00;;;;;;;;5095477;27;45615;-78
2022/03/11 00:25:54;;;;;;;;;3.50;3.25;;;;;;;;5094530;27;46556;-78
2022/03/11 00:28:20;;;;;;;;;4.00;4.00;;;;;;;;5095313;27;45416;-78
2022/03/11 00:30:45;;;;;;;;;3.25;3.25;;;;;;;;5095941;27;45577;-78
2022/03/11 00:33:10;;;;;;;;;4.25;3.00;;;;;;;;5095890;27;45256;-78
2022/03/11 00:35:36;;;;;;;;;4.75;4.75;;;;;;;;5095591;27;46286;-78
2022/03/11 00:38:02;;;;;;;;;4.00;4.00;;;;;;;;5095560;27;45612;-78
2022/03/11 00:40:27;;;;;;;;;5.00;5.00;;;;;;;;5094582;27;45168;-78
2022/03/11 00:42:52;;;;;;;;;4.25;3.50;;;;;;;;5094847;27;45538;-78
2022/03/11 00:45:18;;;;;;;;;4.00;4.00;;;;;;;;5095041;27;46284;-78
2022/03/11 00:47:43;;;;;;;;;5.00;5.00;;;;;;;;5095736;27;45489;-78
2022/03/11 00:50:09;;;;;;;;;2.50;2.50;;;;;;;;5096919;27;45300;-78
2022/03/11 00:52:34;;;;;;;;;4.00;4.00;;;;;;;;5080067;27;45511;-78
2022/03/11 00:55:02;;;;;;;;;3.75;3.75;;;;;;;;5097885;27;46011;-78
2022/03/11 00:57:27;;;;;;;;;3.00;3.00;;;;;;;;5098676;27;45441;-78
2022/03/11 00:59:52;;;;;;;;;3.75;3.75;;;;;;;;5099393;27;45342;-78
2022/03/11 01:02:17;;;;;;;;;4.50;4.50;;;;;;;;5098135;27;45415;-77
2022/03/11 01:04:43;;;;;;;;;4.50;4.50;;;;;;;;5097741;27;46304;-77
2022/03/11 01:07:08;;;;;;;;;4.25;3.00;;;;;;;;5098344;27;45421;-78
2022/03/11 01:09:33;;;;;;;;;3.00;3.00;;;;;;;;5098537;27;45329;-78
2022/03/11 01:11:58;;;;;;;;;4.50;3.75;;;;;;;;5099086;27;45380;-78
2022/03/11 01:14:23;;;;;;;;;3.00;3.00;;;;;;;;5098006;27;47166;-78
2022/03/11 01:16:49;;;;;;;;;4.50;4.00;;;;;;;;5098086;27;45271;-78
2022/03/11 01:19:14;;;;;;;;;4.00;3.75;;;;;;;;5098452;27;45361;-78
2022/03/11 01:21:39;;;;;;;;;5.00;3.75;;;;;;;;5098296;27;45283;-77
2022/03/11 01:24:04;;;;;;;;;4.25;3.00;;;;;;;;5098758;27;46007;-77
2022/03/11 01:26:30;;;;;;;;;3.25;3.25;;;;;;;;5097035;27;45460;-78
2022/03/11 01:28:55;;;;;;;;;2.50;2.50;;;;;;;;5097397;27;45528;-78
2022/03/11 01:31:20;;;;;;;;;4.00;4.00;;;;;;;;5097447;27;45478;-78
2022/03/11 01:33:46;;;;;;;;;4.00;3.00;;;;;;;;5097735;27;47646;-78
2022/03/11 01:36:11;;;;;;;;;4.75;4.00;;;;;;;;5098465;27;45354;-78
2022/03/11 01:38:36;;;;;;;;;3.50;3.50;;;;;;;;5098021;27;45435;-78
2022/03/11 01:41:02;;;;;;;;;3.00;3.00;;;;;;;;5097729;27;45322;-78
2022/03/11 01:43:28;;;;;;;;;4.75;3.00;;;;;;;;5096979;27;45504;-77
2022/03/11 01:45:53;;;;;;;;;4.25;4.25;;;;;;;;5097297;27;45562;-78
2022/03/11 01:48:19;;;;;;;;;4.00;4.00;;;;;;;;5097776;27;45506;-78
2022/03/11 01:50:44;;;;;;;;;5.00;5.00;;;;;;;;5098494;27;45443;-78
2022/03/11 01:53:10;;;;;;;;;4.75;4.75;;;;;;;;5096935;27;45997;-78
2022/03/11 01:55:36;;;;;;;;;3.25;3.25;;;;;;;;5097065;27;45410;-77
2022/03/11 01:58:02;;;;;;;;;5.75;4.00;;;;;;;;5097248;27;45476;-78
2022/03/11 02:00:27;;;;;;;;;4.00;4.00;;;;;;;;5097164;27;45306;-78
2022/03/11 02:02:52;;;;;;;;;2.00;2.00;;;;;;;;5097740;27;45411;-78
2022/03/11 02:05:18;;;;;;;;;4.00;4.00;;;;;;;;5097279;27;45487;-78
2022/03/11 02:07:43;;;;;;;;;4.50;3.25;;;;;;;;5096572;27;45315;-78
2022/03/11 02:10:09;;;;;;;;;4.75;4.75;;;;;;;;5097346;27;45849;-78
2022/03/11 02:12:35;;;;;;;;;4.25;3.75;;;;;;;;5097042;27;46151;-78
2022/03/11 02:15:04;;;;;;;;;6.00;6.00;;;;;;;;5098246;27;45243;-78
2022/03/11 02:17:29;;;;;;;;;4.75;4.00;;;;;;;;5097398;27;45339;-78
2022/03/11 02:19:54;;;;;;;;;4.00;4.00;;;;;;;;5090359;27;45351;-78
2022/03/11 02:22:21;;;;;;;;;4.75;4.75;;;;;;;;5086044;27;46159;-77
2022/03/11 02:24:46;;;;;;;;;4.00;4.00;;;;;;;;5096405;27;45340;-77
2022/03/11 02:27:12;;;;;;;;;4.75;4.75;;;;;;;;5097540;27;45382;-78
2022/03/11 02:29:37;;;;;;;;;4.00;4.00;;;;;;;;5097969;27;45409;-78
2022/03/11 02:32:03;;;;;;;;;6.25;5.50;;;;;;;;5096901;27;46937;-78
2022/03/11 02:34:28;;;;;;;;;4.00;4.00;;;;;;;;5097104;27;45512;-78
2022/03/11 02:36:53;;;;;;;;;3.25;3.00;;;;;;;;5096509;27;45335;-78
2022/03/11 02:39:19;;;;;;;;;4.00;4.00;;;;;;;;5097069;27;45398;-78
2022/03/11 02:41:47;;;;;;;;;6.75;4.00;;;;;;;;5097152;27;45485;-78
2022/03/11 02:44:12;;;;;;;;;5.25;5.00;;;;;;;;5096105;27;45778;-78
2022/03/11 02:46:38;;;;;;;;;3.75;3.75;;;;;;;;5095452;27;45393;-78
2022/03/11 02:49:03;;;;;;;;;3.25;3.25;;;;;;;;5078313;27;45469;-78
2022/03/11 02:51:28;;;;;;;;;3.00;3.00;;;;;;;;5079732;27;45671;-78
2022/03/11 02:53:53;;;;;;;;;4.50;4.50;;;;;;;;5097438;27;45386;-78
2022/03/11 02:56:20;;;;;;;;;2.75;2.75;;;;;;;;5096810;27;45566;-78
2022/03/11 02:58:46;;;;;;;;;3.50;3.50;;;;;;;;5096792;27;45557;-78
2022/03/11 03:01:11;;;;;;;;;3.00;3.00;;;;;;;;5096184;27;47251;-78
2022/03/11 03:03:36;;;;;;;;;4.00;4.00;;;;;;;;5096230;27;45271;-78
2022/03/11 03:06:03;;;;;;;;;3.75;3.75;;;;;;;;5097440;27;45601;-77
2022/03/11 03:08:28;;;;;;;;;4.00;4.00;;;;;;;;5085380;27;45573;-78
2022/03/11 03:10:53;;;;;;;;;4.50;4.50;;;;;;;;5091329;27;46935;-78
2022/03/11 03:13:18;;;;;;;;;6.75;4.25;;;;;;;;5096439;27;49269;-78
2022/03/11 03:15:43;;;;;;;;;4.25;4.25;;;;;;;;5096867;27;45486;-78
2022/03/11 03:18:09;;;;;;;;;3.00;3.00;;;;;;;;5097381;27;45254;-78
2022/03/11 03:20:34;;;;;;;;;4.50;4.50;;;;;;;;5084097;27;47158;-78
2022/03/11 03:22:59;;;;;;;;;4.25;4.00;;;;;;;;5091624;27;45358;-78
2022/03/11 03:25:25;;;;;;;;;3.00;3.00;;;;;;;;5078010;27;45517;-78
2022/03/11 03:27:50;;;;;;;;;3.00;3.00;;;;;;;;5094617;27;45254;-78
2022/03/11 03:30:15;;;;;;;;;4.50;3.75;;;;;;;;5093570;27;45518;-78
2022/03/11 03:32:43;;;;;;;;;4.00;4.00;;;;;;;;5096816;27;45231;-78
2022/03/11 03:35:10;;;;;;;;;4.00;4.00;;;;;;;;5095417;27;45418;-78
2022/03/11 03:37:35;;;;;;;;;5.75;3.50;;;;;;;;5095890;27;45332;-78
2022/03/11 03:40:00;;;;;;;;;3.25;2.75;;;;;;;;5095443;27;46604;-78
2022/03/11 03:42:26;;;;;;;;;5.75;3.50;;;;;;;;5095764;27;45473;-78
2022/03/11 03:44:53;;;;;;;;;4.50;4.00;;;;;;;;5097010;27;45437;-78
2022/03/11 03:47:18;;;;;;;;;5.00;3.75;;;;;;;;5095468;27;45259;-78
2022/03/11 03:49:44;;;;;;;;;3.00;3.00;;;;;;;;5095020;27;45374;-78
2022/03/11 03:52:11;;;;;;;;;4.00;4.00;;;;;;;;5096132;27;45430;-78
2022/03/11 03:54:41;;;;;;;;;4.00;4.00;;;;;;;;5082306;27;45368;-78
2022/03/11 03:57:07;;;;;;;;;4.25;4.00;;;;;;;;5092459;27;45374;-78
2022/03/11 03:59:32;;;;;;;;;4.25;4.25;;;;;;;;5095306;27;46110;-78
2022/03/11 04:01:57;;;;;;;;;3.25;3.25;;;;;;;;5094633;27;45327;-78
2022/03/11 04:04:23;;;;;;;;;3.25;3.00;;;;;;;;5093899;27;45542;-78
2022/03/11 04:06:48;;;;;;;;;4.50;4.50;;;;;;;;5077576;27;45428;-78
2022/03/11 04:09:13;;;;;;;;;2.25;2.25;;;;;;;;5079052;27;46115;-78
2022/03/11 04:11:40;;;;;;;;;5.75;3.25;;;;;;;;5096276;27;45348;-78
2022/03/11 04:14:05;;;;;;;;;3.25;3.25;;;;;;;;5095803;27;45271;-78
2022/03/11 04:16:30;;;;;;;;;5.50;4.00;;;;;;;;5095033;27;45226;-78
2022/03/11 04:18:56;;;;;;;;;3.75;3.75;;;;;;;;5095298;27;47150;-78
2022/03/11 04:21:21;;;;;;;;;4.00;4.00;;;;;;;;5079164;27;45421;-78
2022/03/11 04:23:48;;;;;;;;;5.00;3.25;;;;;;;;5096003;27;45430;-78
2022/03/11 04:26:13;;;;;;;;;5.00;5.00;;;;;;;;5098970;27;45504;-78
2022/03/11 04:28:39;;;;;;;;;5.25;4.50;;;;;;;;5098702;27;46299;-78
2022/03/11 04:31:04;;;;;;;;;5.00;5.00;;;;;;;;5098179;27;45507;-78
2022/03/11 04:33:29;;;;;;;;;4.00;4.00;;;;;;;;5099561;27;45476;-78
2022/03/11 04:35:55;;;;;;;;;3.25;3.25;;;;;;;;5099590;27;45409;-78
2022/03/11 04:38:20;;;;;;;;;6.25;4.00;;;;;;;;5098775;27;45254;-77
2022/03/11 04:40:45;;;;;;;;;5.00;5.00;;;;;;;;5098654;27;45467;-78
2022/03/11 04:43:10;;;;;;;;;4.50;4.50;;;;;;;;5098730;27;45437;-78
2022/03/11 04:45:36;;;;;;;;;7.00;4.50;;;;;;;;5098532;27;45313;-77
2022/03/11 04:48:01;;;;;;;;;4.00;4.00;;;;;;;;5099800;27;46174;-77
2022/03/11 04:50:26;;;;;;;;;4.25;4.25;;;;;;;;5087517;27;45440;-77
2022/03/11 04:52:52;;;;;;;;;3.75;3.75;;;;;;;;5092366;27;45403;-77
2022/03/11 04:55:17;;;;;;;;;5.50;3.75;;;;;;;;5099606;27;45444;-77
2022/03/11 04:57:43;;;;;;;;;3.50;3.50;;;;;;;;5097988;27;46265;-77
2022/03/11 05:00:08;;;;;;;;;3.75;3.75;;;;;;;;5099339;27;45341;-77
2022/03/11 05:02:34;;;;;;;;;4.50;4.00;;;;;;;;5086149;27;45591;-77
2022/03/11 05:05:03;;;;;;;;;4.00;4.00;;;;;;;;5093423;27;45457;-76
2022/03/11 05:07:29;;;;;;;;;6.00;5.75;;;;;;;;5097825;27;47081;-77
2022/03/11 05:09:54;;;;;;;;;4.50;4.50;;;;;;;;5098028;27;45582;-77
2022/03/11 05:12:19;;;;;;;;;4.00;4.00;;;;;;;;5083651;27;46025;-77
2022/03/11 05:14:44;;;;;;;;;5.00;5.00;;;;;;;;5102006;27;45464;-77
2022/03/11 05:17:10;;;;;;;;;4.00;4.00;;;;;;;;5101269;27;46179;-77
2022/03/11 05:19:36;;;;;;;;;4.00;4.00;;;;;;;;5094957;27;45428;-77
2022/03/11 05:22:01;;;;;;;;;4.00;4.00;;;;;;;;5067208;27;45444;-77
2022/03/11 05:24:26;;;;;;;;;4.00;4.00;;;;;;;;5097819;27;45995;-77
2022/03/11 05:26:52;;;;;;;;;3.25;3.25;;;;;;;;5098706;27;45376;-77
2022/03/11 05:29:17;;;;;;;;;5.00;5.00;;;;;;;;5097755;27;45355;-77
2022/03/11 05:31:42;;;;;;;;;4.00;4.00;;;;;;;;5097783;27;45466;-77
2022/03/11 05:34:08;;;;;;;;;5.00;3.25;;;;;;;;5097985;27;45392;-78
2022/03/11 05:36:33;;;;;;;;;4.25;4.25;;;;;;;;5096366;27;46255;-77
2022/03/11 05:38:59;;;;;;;;;3.75;3.75;;;;;;;;5098821;27;45294;-77
2022/03/11 05:41:24;;;;;;;;;6.75;5.00;;;;;;;;5097922;27;45513;-77
2022/03/11 05:43:49;;;;;;;;;5.75;5.00;;;;;;;;5097339;27;46577;-78
2022/03/11 05:46:14;;;;;;;;;4.00;4.00;;;;;;;;5097535;27;46023;-77
2022/03/11 05:48:40;;;;;;;;;6.00;4.75;;;;;;;;5097484;27;45318;-77
2022/03/11 05:51:05;;;;;;;;;6.25;6.00;;;;;;;;5098749;27;45394;-77
2022/03/11 05:53:30;;;;;;;;;6.50;5.00;;;;;;;;5097240;27;45523;-77
2022/03/11 05:55:55;;;;;;;;;5.00;4.00;;;;;;;;5097822;27;48863;-77
2022/03/11 05:58:20;;;;;;;;;4.00;4.00;;;;;;;;5096770;27;45500;-77
2022/03/11 06:00:46;;;;;;;;;5.25;4.00;;;;;;;;5097407;27;45435;-77
2022/03/11 06:03:12;;;;;;;;;4.00;4.00;;;;;;;;5098501;27;45418;-77
2022/03/11 06:05:37;;;;;;;;;6.00;5.00;;;;;;;;5097587;27;46841;-77
2022/03/11 06:08:02;;;;;;;;;8.25;7.00;;;;;;;;5096994;27;45207;-77
2022/03/11 06:10:27;;;;;;;;;4.75;4.75;;;;;;;;5097136;27;45852;-77
2022/03/11 06:12:53;;;;;;;;;5.00;5.00;;;;;;;;5096909;27;45567;-77
2022/03/11 06:15:18;;;;;;;;;4.25;4.25;;;;;;;;5097264;27;47295;-77
2022/03/11 06:17:43;;;;;;;;;5.00;4.00;;;;;;;;5097613;27;45597;-78
2022/03/11 06:20:09;;;;;;;;;8.75;6.75;;;;;;;;5096977;27;45320;-77
2022/03/11 06:22:36;;;;;;;;;6.00;5.75;;;;;;;;5096898;27;45611;-77
2022/03/11 06:25:02;;;;;;;;;4.00;4.00;;;;;;;;5096337;27;46040;-78
2022/03/11 06:27:27;;;;;;;;;4.00;4.00;;;;;;;;5095778;27;45387;-77
2022/03/11 06:29:53;;;;;;;;;6.75;5.25;;;;;;;;5098134;27;45398;-77
2022/03/11 06:32:18;;;;;;;;;4.00;4.00;;;;;;;;5096496;27;45532;-77
2022/03/11 06:34:44;;;;;;;;;4.00;4.00;;;;;;;;5096888;27;46076;-78
2022/03/11 06:37:09;;;;;;;;;5.00;5.00;;;;;;;;5097155;27;45353;-78
2022/03/11 06:39:34;;;;;;;;;5.00;5.00;;;;;;;;5097068;27;45422;-77
2022/03/11 06:41:59;;;;;;;;;5.00;5.00;;;;;;;;5097821;27;45280;-77
2022/03/11 06:44:24;;;;;;;;;5.00;5.00;;;;;;;;5096152;27;45981;-77
2022/03/11 06:46:50;;;;;;;;;5.00;5.00;;;;;;;;5091051;27;45474;-78
2022/03/11 06:49:15;;;;;;;;;5.00;4.25;;;;;;;;5064721;27;46111;-78
2022/03/11 06:51:40;;;;;;;;;6.00;5.00;;;;;;;;5080384;27;45355;-77
2022/03/11 06:54:07;;;;;;;;;6.75;6.00;;;;;;;;5092841;27;45985;-78
2022/03/11 06:56:34;;;;;;;;;6.50;5.75;;;;;;;;5095582;27;45475;-77
2022/03/11 06:58:59;;;;;;;;;5.00;5.00;;;;;;;;5096520;27;45413;-77
2022/03/11 07:01:24;;;;;;;;;5.75;5.25;;;;;;;;5096361;27;45434;-78
2022/03/11 07:03:49;;;;;;;;;5.75;5.75;;;;;;;;5096389;27;46061;-77
2022/03/11 07:06:15;;;;;;;;;5.00;5.00;;;;;;;;5097025;27;45536;-77
2022/03/11 07:08:40;;;;;;;;;6.50;5.75;;;;;;;;5096921;27;45660;-77
2022/03/11 07:11:05;;;;;;;;;5.75;5.00;;;;;;;;5095654;27;45469;-77
2022/03/11 07:13:30;;;;;;;;;4.50;4.00;;;;;;;;5096818;27;45641;-74
2022/03/11 07:15:56;;;;;;;;;7.00;6.75;;;;;;;;5096408;27;46397;-74
2022/03/11 07:18:21;;;;;;;;;6.00;5.75;;;;;;;;5095983;27;45334;-73
2022/03/11 07:20:47;;;;;;;;;8.00;5.00;;;;;;;;5083827;27;45584;-73
2022/03/11 07:23:12;;;;;;;;;5.25;5.25;;;;;;;;5092347;27;46966;-74
2022/03/11 07:25:38;;;;;;;;;4.75;4.75;;;;;;;;5091606;27;45382;-72
2022/03/11 07:28:03;;;;;;;;;6.25;6.25;;;;;;;;5082694;27;45295;-72
2022/03/11 07:30:29;;;;;;;;;5.25;5.25;;;;;;;;5079296;27;45323;-71
2022/03/11 07:32:54;;;;;;;;;6.00;6.00;;;;;;;;5096848;27;45246;-71
2022/03/11 07:35:19;;;;;;;;;6.50;6.50;;;;;;;;5094683;27;45508;-72
2022/03/11 07:37:45;;;;;;;;;7.00;7.00;;;;;;;;5094633;27;45181;-71
2022/03/11 07:40:11;;;;;;;;;5.50;5.50;;;;;;;;5094711;27;45915;-72
2022/03/11 07:42:37;;;;;;;;;4.50;4.50;;;;;;;;5095064;27;46216;-71
2022/03/11 07:45:02;;;;;;;;;5.00;4.50;;;;;;;;5096624;27;45316;-71
2022/03/11 07:47:28;;;;;;;;;7.50;5.75;;;;;;;;5095359;27;45517;-70
2022/03/11 07:49:53;;;;;;;;;4.75;4.75;;;;;;;;5095584;27;45239;-71
2022/03/11 07:52:21;;;;;;;;;6.00;5.50;;;;;;;;5096336;27;48766;-71
2022/03/11 07:54:46;;;;;;;;;6.00;6.00;;;;;;;;5105856;27;45464;-72
2022/03/11 07:57:11;;;;;;;;;6.75;5.75;;;;;;;;5096090;27;45341;-71
2022/03/11 07:59:37;;;;;;;;;5.00;5.00;;;;;;;;5095390;27;45317;-71
2022/03/11 08:02:03;;;;;;;;;6.00;6.00;;;;;;;;5095127;27;46159;-69
2022/03/11 08:04:29;;;;;;;;;5.50;5.00;;;;;;;;5095336;27;45515;-70
2022/03/11 08:06:54;;;;;;;;;7.75;5.75;;;;;;;;5095914;27;45525;-71
2022/03/11 08:09:19;;;;;;;;;7.75;7.75;;;;;;;;5095147;27;45457;-72
2022/03/11 08:11:45;;;;;;;;;11.75;11.00;;;;;;;;5096227;27;46063;-70
2022/03/11 08:14:13;;;;;;;;;11.00;10.00;;;;;;;;5086824;27;45442;-69
2022/03/11 08:16:38;;;;;;;;;10.00;10.00;;;;;;;;5087295;27;45753;-69
2022/03/11 08:19:03;;;;;;;;;8.00;8.00;;;;;;;;5094664;27;45792;-69
2022/03/11 08:21:29;;;;;;;;;9.50;8.25;;;;;;;;5078716;27;46964;-68
2022/03/11 08:23:54;;;;;;;;;11.00;8.75;;;;;;;;5094344;27;45653;-70
2022/03/11 08:26:19;;;;;;;;;8.00;7.00;;;;;;;;5095195;27;45486;-71
2022/03/11 08:28:45;;;;;;;;;7.00;7.00;;;;;;;;5094997;27;45477;-69
2022/03/11 08:31:10;;;;;;;;;8.75;7.50;;;;;;;;5095232;27;45515;-70
2022/03/11 08:33:37;;;;;;;;;8.50;8.00;;;;;;;;5095533;27;45440;-70
2022/03/11 08:36:02;;;;;;;;;8.00;8.00;;;;;;;;5095692;27;45444;-70
2022/03/11 08:38:27;;;;;;;;;8.75;7.25;;;;;;;;5094495;27;45524;-69
2022/03/11 08:40:52;;;;;;;;;7.75;7.75;;;;;;;;5095287;27;45468;-69
2022/03/11 08:43:19;;;;;;;;;7.50;6.75;;;;;;;;5095024;27;45322;-69
2022/03/11 08:45:44;;;;;;;;;8.00;6.25;;;;;;;;5095134;27;45404;-70
2022/03/11 08:48:09;;;;;;;;;5.50;5.50;;;;;;;;5095996;27;45266;-68
2022/03/11 08:50:34;;;;;;;;;5.50;5.00;;;;;;;;5094234;27;45343;-70
2022/03/11 08:53:00;;;;;;;;;5.50;5.50;;;;;;;;5094330;27;45321;-70
2022/03/11 08:55:25;;;;;;;;;7.00;5.50;;;;;;;;5094810;27;45418;-69
2022/03/11 08:57:51;;;;;;;;;5.00;5.00;;;;;;;;5094206;27;45222;-70
2022/03/11 09:00:19;;;;;;;;;4.00;4.00;;;;;;;;5094734;27;46864;-70
2022/03/11 09:02:44;;;;;;;;;5.00;5.00;;;;;;;;5094505;27;45485;-70
2022/03/11 09:05:09;;;;;;;;;6.00;5.00;;;;;;;;5094810;27;45297;-70
2022/03/11 09:07:35;;;;;;;;;4.00;4.00;;;;;;;;5093979;27;45396;-70
2022/03/11 09:10:00;;;;;;;;;5.00;5.00;;;;;;;;5095584;27;45306;-69
2022/03/11 09:12:26;;;;;;;;;5.00;4.75;;;;;;;;5097507;27;45471;-69
2022/03/11 09:14:51;;;;;;;;;5.75;3.00;;;;;;;;5099232;27;45390;-69
2022/03/11 09:17:16;;;;;;;;;4.00;4.00;;;;;;;;5098177;27;45480;-70
2022/03/11 09:19:43;;;;;;;;;4.25;4.25;;;;;;;;5097627;27;46986;-70
2022/03/11 09:22:09;;;;;;;;;3.75;3.00;;;;;;;;5097682;27;45446;-69
2022/03/11 09:24:34;;;;;;;;;5.00;5.00;;;;;;;;5097620;27;45499;-69
2022/03/11 09:26:59;;;;;;;;;4.25;4.00;;;;;;;;5098530;27;45392;-69
2022/03/11 09:29:28;;;;;;;;;4.00;4.00;;;;;;;;5097918;27;45470;-69
2022/03/11 09:31:53;;;;;;;;;3.50;3.50;;;;;;;;5097171;27;45728;-69
2022/03/11 09:34:19;;;;;;;;;4.50;4.50;;;;;;;;5097051;27;45500;-69
2022/03/11 09:36:44;;;;;;;;;4.75;4.75;;;;;;;;5084081;27;45366;-70
2022/03/11 09:39:09;;;;;;;;;4.25;4.25;;;;;;;;5098352;27;45402;-70
2022/03/11 09:41:36;;;;;;;;;4.50;4.00;;;;;;;;5097737;27;45345;-70
2022/03/11 09:44:02;;;;;;;;;4.00;4.00;;;;;;;;5097420;27;45555;-71
2022/03/11 09:46:27;;;;;;;;;3.25;3.25;;;;;;;;5097386;27;45565;-71
2022/03/11 09:48:53;;;;;;;;;6.75;6.25;;;;;;;;5097899;27;46096;-71
2022/03/11 09:51:19;;;;;;;;;5.00;5.00;;;;;;;;5080071;27;45401;-70
2022/03/11 09:53:44;;;;;;;;;10.75;7.25;;;;;;;;5098340;27;45371;-71
2022/03/11 09:56:09;;;;;;;;;5.00;5.00;;;;;;;;5092897;27;45495;-69
2022/03/11 09:58:35;;;;;;;;;6.25;5.25;;;;;;;;5096501;27;45205;-69
2022/03/11 10:01:00;;;;;;;;;6.50;5.00;;;;;;;;5097492;27;45547;-70
2022/03/11 10:03:27;;;;;;;;;5.75;3.75;;;;;;;;5097401;27;45212;-69
2022/03/11 10:05:53;;;;;;;;;8.00;5.25;;;;;;;;5095375;27;45406;-70
2022/03/11 10:08:35;;;;;;;;;6.00;6.00;;;;;;;;5096557;27;46272;-69
2022/03/11 10:11:19;;;;;;;;;7.75;7.00;;;;;;;;5091743;27;45479;-69
2022/03/11 10:13:44;;;;;;;;;6.25;6.00;;;;;;;;5092300;27;45284;-68
2022/03/11 10:16:36;;;;;;;;;4.50;4.50;;;;;;;;5097369;27;45453;-68
2022/03/11 10:19:05;;;;;;;;;4.75;4.75;;;;;;;;5090473;27;45670;-68
2022/03/11 10:21:35;;;;;;;;;7.00;7.00;;;;;;;;5096596;27;45496;-69
2022/03/11 10:24:02;;;;;;;;;3.25;3.00;;;;;;;;5097879;27;45389;-68
2022/03/11 10:26:33;;;;;;;;;5.50;5.00;;;;;;;;5096996;27;45454;-69
2022/03/11 10:28:59;;;;;;;;;3.25;3.25;;;;;;;;5097128;27;46237;-68
2022/03/11 10:31:28;;;;;;;;;6.00;4.50;;;;;;;;5099007;27;45292;-69
2022/03/11 10:34:10;;;;;;;;;3.00;3.00;;;;;;;;5096331;27;45402;-68
2022/03/11 10:36:35;;;;;;;;;3.00;3.00;;;;;;;;5096620;27;45566;-69
2022/03/11 10:39:11;;;;;;;;;2.75;2.50;;;;;;;;5082247;27;47116;-68
2022/03/11 10:41:36;;;;;;;;;3.00;3.00;;;;;;;;5096050;27;45553;-68
2022/03/11 10:44:04;;;;;;;;;4.00;2.25;;;;;;;;5096273;27;45426;-68
2022/03/11 10:46:29;;;;;;;;;6.50;3.50;;;;;;;;5096208;27;45447;-68
2022/03/11 10:48:56;;;;;;;;;3.00;2.50;;;;;;;;5095854;27;46851;-67
2022/03/11 10:51:24;;;;;;;;;3.00;3.00;;;;;;;;5079200;27;45550;-68
2022/03/11 10:53:49;;;;;;;;;3.75;3.75;;;;;;;;5096876;27;46768;-67
2022/03/11 10:56:23;;;;;;;;;1.00;1.00;;;;;;;;5096405;27;45567;-67
2022/03/11 10:58:48;;;;;;;;;3.00;3.00;;;;;;;;5095919;27;46379;-68
2022/03/11 11:01:14;;;;;;;;;3.00;3.00;;;;;;;;5096304;27;45365;-68
2022/03/11 11:03:40;;;;;;;;;5.00;3.00;;;;;;;;5095857;27;45563;-68
2022/03/11 11:06:05;;;;;;;;;2.25;2.25;;;;;;;;5097436;27;45414;-68
2022/03/11 11:08:33;;;;;;;;;3.75;3.75;;;;;;;;5084808;27;46116;-68
2022/03/11 11:10:59;;;;;;;;;1.25;1.25;;;;;;;;5091555;27;45461;-70
2022/03/11 11:13:24;;;;;;;;;4.50;1.50;;;;;;;;5096435;27;45501;-69
2022/03/11 11:15:52;;;;;;;;;1.75;1.75;;;;;;;;5096413;27;45427;-69
2022/03/11 11:18:17;;;;;;;;;3.00;3.00;;;;;;;;5096141;27;47296;-69
2022/03/11 11:20:47;;;;;;;;;3.00;3.00;;;;;;;;5083486;27;45385;-69
2022/03/11 11:23:13;;;;;;;;;3.00;3.00;;;;;;;;5092398;27;45498;-68
2022/03/11 11:25:40;;;;;;;;;3.00;3.00;;;;;;;;5095443;27;45553;-69
2022/03/11 11:28:16;;;;;;;;;2.75;2.75;;;;;;;;5095790;27;46240;-69
2022/03/11 11:30:42;;;;;;;;;3.50;3.50;;;;;;;;5079486;27;45260;-69
2022/03/11 11:33:08;;;;;;;;;6.00;4.25;;;;;;;;5073305;27;45358;-68
2022/03/11 11:35:35;;;;;;;;;3.00;2.00;;;;;;;;5094841;27;45227;-68
2022/03/11 11:38:02;;;;;;;;;2.50;2.00;;;;;;;;5095167;27;46061;-68
2022/03/11 11:40:37;;;;;;;;;3.50;3.50;;;;;;;;5094996;27;45408;-68
2022/03/11 11:43:12;;;;;;;;;4.00;3.00;;;;;;;;5095292;27;45388;-68
2022/03/11 11:46:09;;;;;;;;;3.00;3.00;;;;;;;;5095501;27;45401;-68
2022/03/11 11:48:35;;;;;;;;;3.75;3.75;;;;;;;;5031602;28;46334;-68
2022/03/11 11:51:01;;;;;;;;;3.50;2.00;;;;;;;;5032979;28;45396;-68
2022/03/11 11:53:37;;;;;;;;;3.00;3.00;;;;;;;;5031833;28;45406;-68
2022/03/11 11:56:21;;;;;;;;;3.00;3.00;;;;;;;;5032052;28;47298;-68
2022/03/11 11:58:50;;;;;;;;;2.00;2.00;;;;;;;;5028551;28;46506;-68
2022/03/11 12:01:35;;;;;;;;;4.00;4.00;;;;;;;;5028845;28;45451;-68
2022/03/11 12:04:19;;;;;;;;;2.75;1.25;;;;;;;;5031708;28;45531;-68
2022/03/11 12:07:00;;;;;;;;;2.00;2.00;;;;;;;;5016765;28;45640;-72
2022/03/11 12:09:48;;;;;;;;;1.25;1.25;;;;;;;;5032076;28;45477;-72
2022/03/11 12:12:30;;;;;;;;;3.00;3.00;;;;;;;;5028951;28;45473;-72
2022/03/11 12:15:01;;;;;;;;;4.75;2.50;;;;;;;;5033066;28;45404;-72
2022/03/11 12:17:36;;;;;;;;;4.00;3.00;;;;;;;;5031190;28;45466;-72
2022/03/11 12:20:20;;;;;;;;;2.00;2.00;;;;;;;;5025323;28;46393;-72
2022/03/11 12:23:03;;;;;;;;;2.00;2.00;;;;;;;;5029485;28;45559;-70
2022/03/11 12:25:34;;;;;;;;;2.50;2.50;;;;;;;;5068275;27;45576;-72
2022/03/11 12:28:00;;;;;;;;;3.00;3.00;;;;;;;;5095774;27;45560;-69
2022/03/11 12:30:45;;;;;;;;;3.50;3.50;;;;;;;;5092574;27;46167;-70
2022/03/11 12:33:13;;;;;;;;;3.00;3.00;;;;;;;;5077530;27;45429;-70
2022/03/11 12:35:38;;;;;;;;;4.00;2.25;;;;;;;;5093691;27;45386;-69
2022/03/11 12:38:04;;;;;;;;;2.25;2.25;;;;;;;;5092732;27;45544;-69
2022/03/11 12:40:30;;;;;;;;;3.00;3.00;;;;;;;;5090763;27;46756;-69
2022/03/11 12:42:57;;;;;;;;;4.50;3.00;;;;;;;;5090821;27;46056;-69
2022/03/11 12:45:36;;;;;;;;;3.75;3.00;;;;;;;;5094381;27;45482;-69
2022/03/11 12:48:01;;;;;;;;;5.00;4.00;;;;;;;;5098057;27;45424;-73
2022/03/11 12:50:27;;;;;;;;;4.00;3.00;;;;;;;;5094843;27;45541;-72
2022/03/11 12:52:54;;;;;;;;;3.00;2.25;;;;;;;;5096891;27;45552;-72
2022/03/11 12:55:20;;;;;;;;;4.75;3.00;;;;;;;;5097666;27;45515;-72
2022/03/11 12:57:50;;;;;;;;;2.50;2.00;;;;;;;;5095572;27;45370;-70
2022/03/11 13:00:22;;;;;;;;;4.00;4.00;;;;;;;;5098233;27;47004;-70
2022/03/11 13:02:49;;;;;;;;;4.50;3.00;;;;;;;;5097994;27;45413;-70
2022/03/11 13:05:32;;;;;;;;;2.50;2.50;;;;;;;;5095445;27;45480;-69
2022/03/11 13:08:08;;;;;;;;;3.00;2.50;;;;;;;;5097622;27;45715;-70
2022/03/11 13:10:34;;;;;;;;;4.50;3.50;;;;;;;;5097978;27;45481;-69
2022/03/11 13:12:59;;;;;;;;;4.25;3.25;;;;;;;;5097282;27;45409;-70
2022/03/11 13:15:27;;;;;;;;;5.50;3.00;;;;;;;;5098414;27;45232;-70
2022/03/11 13:18:01;;;;;;;;;2.00;2.00;;;;;;;;5098631;27;45470;-70
2022/03/11 13:20:35;;;;;;;;;1.50;1.50;;;;;;;;5097538;27;45485;-70
2022/03/11 13:23:08;;;;;;;;;3.00;3.00;;;;;;;;5097186;27;45433;-70
2022/03/11 13:25:33;;;;;;;;;2.75;2.75;;;;;;;;5098053;27;45425;-70
2022/03/11 13:27:59;;;;;;;;;3.00;3.00;;;;;;;;5097344;27;45428;-69
2022/03/11 13:30:35;;;;;;;;;2.00;2.00;;;;;;;;5097848;27;46087;-70
2022/03/11 13:33:21;;;;;;;;;4.50;3.75;;;;;;;;5097416;27;45353;-70
2022/03/11 13:35:48;;;;;;;;;2.00;2.00;;;;;;;;5097226;27;45386;-70
2022/03/11 13:38:32;;;;;;;;;3.75;2.25;;;;;;;;5096134;27;45548;-69
2022/03/11 13:40:57;;;;;;;;;4.00;2.50;;;;;;;;5097486;27;45355;-70
2022/03/11 13:43:22;;;;;;;;;4.00;3.00;;;;;;;;5096834;27;45408;-70
2022/03/11 13:45:51;;;;;;;;;4.25;3.00;;;;;;;;5097382;27;45252;-70
2022/03/11 13:48:16;;;;;;;;;2.75;2.00;;;;;;;;5097688;27;45305;-69
2022/03/11 13:50:42;;;;;;;;;3.50;3.50;;;;;;;;5085008;27;46184;-70
2022/03/11 13:53:07;;;;;;;;;2.00;2.00;;;;;;;;5092798;27;45476;-70
2022/03/11 13:55:32;;;;;;;;;3.25;3.25;;;;;;;;5097183;27;45303;-70
2022/03/11 13:58:16;;;;;;;;;3.50;2.00;;;;;;;;5095784;27;45339;-70
2022/03/11 14:00:41;;;;;;;;;3.00;3.00;;;;;;;;5080890;27;45321;-70
2022/03/11 14:03:17;;;;;;;;;5.50;2.50;;;;;;;;5097766;27;45557;-69
2022/03/11 14:05:44;;;;;;;;;4.00;3.00;;;;;;;;5097686;27;45433;-70
2022/03/11 14:08:10;;;;;;;;;2.25;2.25;;;;;;;;5096917;27;45276;-70
2022/03/11 14:10:40;;;;;;;;;3.50;2.75;;;;;;;;5096870;27;45990;-69
2022/03/11 14:13:14;;;;;;;;;2.25;2.25;;;;;;;;5096790;27;45433;-70
2022/03/11 14:15:41;;;;;;;;;4.00;2.00;;;;;;;;5097320;27;45389;-69
2022/03/11 14:18:11;;;;;;;;;3.00;3.00;;;;;;;;5098097;27;45826;-69
2022/03/11 14:20:37;;;;;;;;;3.00;3.00;;;;;;;;5096657;27;47101;-69
2022/03/11 14:23:02;;;;;;;;;2.00;2.00;;;;;;;;5096854;27;45476;-70
2022/03/11 14:25:28;;;;;;;;;3.00;2.25;;;;;;;;5096117;27;45421;-69
2022/03/11 14:27:53;;;;;;;;;4.25;3.75;;;;;;;;5095989;27;45505;-69
2022/03/11 14:30:18;;;;;;;;;5.50;3.00;;;;;;;;5096818;27;47141;-70
2022/03/11 14:32:43;;;;;;;;;3.00;3.00;;;;;;;;5092873;27;45172;-69
2022/03/11 14:35:09;;;;;;;;;2.00;2.00;;;;;;;;5096935;27;45551;-70
2022/03/11 14:37:35;;;;;;;;;2.25;2.25;;;;;;;;5096458;27;45335;-70
2022/03/11 14:40:01;;;;;;;;;3.25;3.25;;;;;;;;5096098;27;46068;-70
2022/03/11 14:42:26;;;;;;;;;2.00;2.00;;;;;;;;5096160;27;45344;-69